Time;durP1;ratioP1;P1;durP2;ratioP2;P2;SDS_P1;SDS_P2;PMS_P1;PMS_P2;Temp;Humidity;BMP_temperature;BMP_pressure;BME280_temperature;BME280_humidity;BME280_pressure;Samples;Min_cycle;Max_cycle;Signal;HPM_P1;HPM_P2
2022/04/22 00:00:27;;;;;;;9.00;5.85;;;;;;;8.04;88.29;97853.16;5085138;28;20142;-83
2022/04/22 00:02:54;;;;;;;9.32;6.20;;;;;;;8.04;88.49;97853.16;5084681;28;20097;-82
2022/04/22 00:05:23;;;;;;;10.20;5.95;;;;;;;7.72;89.05;97816.75;5084751;28;20045;-83
2022/04/22 00:07:49;;;;;;;8.45;5.53;;;;;;;7.92;88.74;97842.06;5087748;28;20085;-83
2022/04/22 00:10:16;;;;;;;11.32;6.13;;;;;;;8.00;88.10;97857.28;5084379;28;20139;-83
2022/04/22 00:12:44;;;;;;;8.45;5.60;;;;;;;7.90;88.52;97844.13;5087954;28;20120;-83
2022/04/22 00:15:13;;;;;;;9.38;5.97;;;;;;;8.00;88.87;97845.63;5076574;28;20048;-84
2022/04/22 00:17:40;;;;;;;8.55;5.90;;;;;;;7.71;88.92;97832.16;5087093;28;20065;-83
2022/04/22 00:20:09;;;;;;;9.60;6.18;;;;;;;7.97;88.32;97853.09;5079621;28;20048;-84
2022/04/22 00:22:42;;;;;;;7.90;5.30;;;;;;;7.97;88.15;97836.03;5087439;28;20055;-84
2022/04/22 00:25:11;;;;;;;11.65;5.78;;;;;;;7.83;88.55;97831.59;5079410;28;20086;-84
2022/04/22 00:27:42;;;;;;;8.20;4.53;;;;;;;7.65;89.32;97824.84;5079199;28;20076;-84
2022/04/22 00:30:12;;;;;;;10.88;6.00;;;;;;;7.71;89.95;97826.75;5084708;28;20450;-84
2022/04/22 00:32:39;;;;;;;7.78;5.30;;;;;;;7.60;90.68;97862.44;5091353;28;20402;-84
2022/04/22 00:35:07;;;;;;;10.05;6.07;;;;;;;7.42;92.38;97857.53;5088615;28;20127;-83
2022/04/22 00:37:34;;;;;;;7.63;5.50;;;;;;;7.37;93.01;97850.03;5092384;28;20068;-84
2022/04/22 00:40:02;;;;;;;11.65;5.93;;;;;;;7.51;91.99;97837.47;5088043;28;20143;-83
2022/04/22 00:42:29;;;;;;;11.25;6.68;;;;;;;7.32;92.12;97828.16;5091483;28;20095;-82
2022/04/22 00:44:57;;;;;;;11.60;7.00;;;;;;;7.42;93.23;97853.00;5086519;28;20040;-83
2022/04/22 00:47:28;;;;;;;10.15;6.18;;;;;;;7.22;92.34;97812.28;5079256;28;20054;-83
2022/04/22 00:49:55;;;;;;;11.27;6.38;;;;;;;7.16;93.75;97842.78;5085208;28;20047;-83
2022/04/22 00:52:22;;;;;;;9.77;6.97;;;;;;;6.81;95.31;97822.97;5085683;28;20059;-83
2022/04/22 00:54:50;;;;;;;11.45;6.28;;;;;;;6.96;95.83;97836.41;5080564;28;20381;-82
2022/04/22 00:57:19;;;;;;;9.95;6.50;;;;;;;6.81;96.07;97820.25;5078551;28;20139;-83
2022/04/22 00:59:47;;;;;;;10.27;6.43;;;;;;;6.82;96.28;97852.47;5086655;28;20064;-83
2022/04/22 01:02:14;;;;;;;10.95;6.10;;;;;;;6.44;97.03;97819.47;5090865;28;20128;-82
2022/04/22 01:10:10;;;;;;;12.15;7.07;;;;;;;6.39;97.83;97806.53;5090772;28;20097;-83
2022/04/22 01:12:38;;;;;;;10.73;6.30;;;;;;;6.50;97.64;97821.41;5094899;28;20548;-83
2022/04/22 01:15:06;;;;;;;12.80;7.32;;;;;;;6.40;98.54;97832.53;5089703;28;20044;-83
2022/04/22 01:17:34;;;;;;;11.60;7.30;;;;;;;6.34;98.80;97834.13;5084281;28;20054;-83
2022/04/22 01:20:01;;;;;;;11.35;6.78;;;;;;;6.31;99.16;97834.50;5090611;28;20060;-83
2022/04/22 01:22:29;;;;;;;12.90;6.95;;;;;;;6.12;99.31;97794.63;5085576;28;20094;-83
2022/04/22 01:24:57;;;;;;;10.63;7.47;;;;;;;6.08;100.00;97815.75;5093107;28;20047;-81
2022/04/22 01:27:27;;;;;;;10.02;7.43;;;;;;;6.21;100.00;97817.75;5093446;28;20054;-83
2022/04/22 01:29:53;;;;;;;15.55;8.70;;;;;;;6.14;100.00;97815.00;5089506;28;20066;-81
2022/04/22 01:32:20;;;;;;;12.98;7.60;;;;;;;6.22;100.00;97818.59;5082196;28;20135;-84
2022/04/22 01:34:47;;;;;;;15.43;8.35;;;;;;;6.15;100.00;97813.97;5088960;28;20066;-83
2022/04/22 01:37:14;;;;;;;13.60;7.80;;;;;;;5.94;100.00;97811.19;5087317;28;20106;-81
2022/04/22 01:39:42;;;;;;;12.50;8.27;;;;;;;5.85;100.00;97788.88;5087406;28;20090;-84
2022/04/22 01:42:09;;;;;;;13.30;8.02;;;;;;;5.92;100.00;97787.09;5089964;28;20493;-83
2022/04/22 01:44:36;;;;;;;22.63;8.68;;;;;;;5.72;100.00;97765.28;5084791;28;20143;-83
2022/04/22 01:47:03;;;;;;;13.43;8.13;;;;;;;5.77;100.00;97800.59;5089803;28;20048;-83
2022/04/22 01:49:30;;;;;;;17.08;8.50;;;;;;;5.77;100.00;97800.59;5086333;28;20590;-82
2022/04/22 01:51:57;;;;;;;15.68;7.18;;;;;;;5.48;100.00;97783.44;5089304;28;20076;-83
2022/04/22 01:54:24;;;;;;;11.65;7.97;;;;;;;5.58;100.00;97783.13;5089979;28;20086;-81
2022/04/22 01:56:52;;;;;;;12.82;8.38;;;;;;;5.53;100.00;97772.09;5085593;28;20523;-83
2022/04/22 01:59:19;;;;;;;16.60;9.98;;;;;;;5.63;100.00;97771.78;5082988;28;20123;-83
2022/04/22 02:01:45;;;;;;;13.18;8.50;;;;;;;5.81;100.00;97783.03;5081021;28;20048;-84
2022/04/22 02:04:12;;;;;;;14.20;8.68;;;;;;;5.50;100.00;97750.91;5086702;28;20044;-84
2022/04/22 02:06:39;;;;;;;15.50;9.18;;;;;;;5.56;100.00;97769.00;5081832;28;20048;-83
2022/04/22 02:09:05;;;;;;;15.55;10.20;;;;;;;5.61;100.00;97768.44;5090825;28;20043;-82
2022/04/22 02:11:32;;;;;;;15.82;9.02;;;;;;;5.53;100.00;97774.78;5090468;28;20044;-81
2022/04/22 02:14:00;;;;;;;15.80;8.90;;;;;;;5.27;100.00;97741.06;5091295;28;20659;-82
2022/04/22 02:16:27;;;;;;;14.27;8.18;;;;;;;5.25;100.00;97751.16;5090816;28;20051;-82
2022/04/22 02:18:53;;;;;;;13.20;8.77;;;;;;;5.40;100.00;97761.94;5094130;28;20040;-82
2022/04/22 02:21:21;;;;;;;13.93;8.27;;;;;;;5.24;100.00;97746.81;5091891;28;20040;-82
2022/04/22 02:23:48;;;;;;;12.98;7.97;;;;;;;5.27;100.00;97741.06;5090119;28;20440;-82
2022/04/22 02:26:14;;;;;;;18.58;9.60;;;;;;;5.25;100.00;97755.72;5092860;28;20051;-82
2022/04/22 02:28:40;;;;;;;14.32;8.65;;;;;;;5.17;100.00;97763.91;5081538;28;20036;-81
2022/04/22 02:31:09;;;;;;;17.23;9.15;;;;;;;5.11;100.00;97765.47;5082773;28;20086;-81
2022/04/22 02:33:37;;;;;;;15.63;9.37;;;;;;;5.03;100.00;97765.53;5088887;28;20071;-82
2022/04/22 02:36:06;;;;;;;13.45;9.18;;;;;;;5.10;100.00;97742.25;5092025;28;20050;-82
2022/04/22 02:38:33;;;;;;;13.65;9.25;;;;;;;4.97;100.00;97750.97;5088633;28;20080;-82
2022/04/22 02:46:29;;;;;;;13.43;9.00;;;;;;;4.58;100.00;97744.75;5088176;28;20656;-81
2022/04/22 02:48:58;;;;;;;16.20;9.82;;;;;;;4.68;100.00;97744.53;5087022;28;20052;-81
2022/04/22 02:51:25;;;;;;;17.63;10.75;;;;;;;4.79;100.00;97737.84;5081322;28;20040;-81
2022/04/22 02:53:52;;;;;;;25.55;11.60;;;;;;;4.90;100.00;97729.31;5081352;28;20052;-82
2022/04/22 02:56:20;;;;;;;18.35;11.27;;;;;;;4.98;100.00;97733.78;5091111;28;20127;-82
2022/04/22 02:58:47;;;;;;;15.43;9.73;;;;;;;4.90;100.00;97729.31;5088155;28;20044;-82
2022/04/22 03:01:14;;;;;;;15.65;9.65;;;;;;;4.69;100.00;97723.81;5087559;28;20511;-82
2022/04/22 03:03:42;;;;;;;17.30;10.55;;;;;;;4.70;100.00;97729.00;5085871;28;20052;-82
2022/04/22 03:06:09;;;;;;;18.60;11.15;;;;;;;4.75;100.00;97715.00;5089690;28;20044;-82
2022/04/22 03:08:35;;;;;;;17.67;10.68;;;;;;;4.67;100.00;97718.63;5090735;28;20044;-82
2022/04/22 03:11:04;;;;;;;20.33;11.38;;;;;;;4.72;100.00;97712.69;5082852;28;20075;-82
2022/04/22 03:13:31;;;;;;;20.27;12.13;;;;;;;4.85;100.00;97715.56;5085893;28;20493;-82
2022/04/22 03:15:58;;;;;;;23.23;12.80;;;;;;;4.56;100.00;97690.28;5092477;28;20229;-82
2022/04/22 03:18:24;;;;;;;21.60;12.85;;;;;;;4.58;100.00;97704.38;5090093;28;20523;-81
2022/04/22 03:20:52;;;;;;;20.48;11.45;;;;;;;4.71;100.00;97727.16;5088414;28;20047;-82
2022/04/22 03:23:19;;;;;;;23.25;12.70;;;;;;;4.56;100.00;97706.44;5085047;28;20377;-82
2022/04/22 03:25:46;;;;;;;23.70;12.93;;;;;;;4.59;100.00;97692.63;5088671;28;20044;-82
2022/04/22 03:28:13;;;;;;;21.55;13.32;;;;;;;4.59;100.00;97707.91;5086234;28;20146;-81
2022/04/22 03:30:40;;;;;;;23.38;13.95;;;;;;;4.78;100.00;97715.47;5082666;28;20403;-81
2022/04/22 03:33:07;;;;;;;22.58;13.30;;;;;;;4.61;100.00;97703.19;5089612;28;20360;-82
2022/04/22 03:35:50;;;;;;;28.33;12.98;;;;;;;4.71;100.00;97708.31;5085944;28;20048;-81
2022/04/22 03:38:20;;;;;;;23.90;12.98;;;;;;;4.56;100.00;97700.19;5091582;28;20044;-81
2022/04/22 03:40:47;;;;;;;24.52;14.23;;;;;;;4.55;100.00;97685.91;5090673;28;20065;-81
2022/04/22 03:43:14;;;;;;;24.92;14.48;;;;;;;4.57;100.00;97677.66;5093107;28;20037;-81
2022/04/22 03:45:40;;;;;;;31.88;14.30;;;;;;;4.53;100.00;97692.50;5083234;28;20048;-81
2022/04/22 03:48:09;;;;;;;28.38;14.57;;;;;;;4.53;100.00;97687.09;5090759;28;20056;-81
2022/04/22 03:50:37;;;;;;;23.23;13.03;;;;;;;4.37;100.00;97671.97;5086568;28;20040;-81
2022/04/22 03:53:04;;;;;;;24.35;13.68;;;;;;;4.50;100.00;97715.25;5085469;28;20048;-81
2022/04/22 03:55:32;;;;;;;24.70;14.00;;;;;;;4.53;100.00;97705.94;5084155;28;20127;-81
2022/04/22 03:58:11;;;;;;;25.38;14.38;;;;;;;4.34;100.00;97677.72;5085148;28;20131;-81
2022/04/22 04:00:39;;;;;;;26.73;13.15;;;;;;;4.38;100.00;97687.94;5087454;28;20048;-81
2022/04/22 04:03:06;;;;;;;25.75;14.88;;;;;;;4.25;100.00;97693.91;5094344;28;20074;-81
2022/04/22 04:05:33;;;;;;;28.73;15.55;;;;;;;4.41;100.00;97705.53;5089661;28;20062;-81
2022/04/22 04:07:59;;;;;;;29.40;15.13;;;;;;;4.18;100.00;97675.97;5090436;28;20411;-81
2022/04/22 04:15:59;;;;;;;23.45;12.25;;;;;;;4.06;100.00;97713.22;5096045;28;20071;-82
2022/04/22 04:18:26;;;;;;;22.70;12.90;;;;;;;3.92;100.00;97714.84;5096853;28;20112;-81
2022/04/22 04:23:38;;;;;;;22.35;13.05;;;;;;;3.95;100.00;97714.47;5089623;28;20493;-81
2022/04/22 04:26:06;;;;;;;23.58;13.45;;;;;;;3.82;100.00;97716.91;5086497;28;20047;-81
2022/04/22 04:28:34;;;;;;;25.20;14.10;;;;;;;3.93;100.00;97726.41;5095429;28;20058;-81
2022/04/22 04:31:01;;;;;;;22.40;13.60;;;;;;;3.85;100.00;97724.63;5085457;28;20075;-81
2022/04/22 04:33:28;;;;;;;26.90;13.95;;;;;;;3.63;100.00;97713.66;5092858;28;20150;-82
2022/04/22 04:35:58;;;;;;;26.48;13.85;;;;;;;3.67;100.00;97720.38;5085803;28;20050;-81
2022/04/22 04:38:25;;;;;;;23.45;13.75;;;;;;;3.68;100.00;97695.16;5092630;28;20058;-81
2022/04/22 04:40:53;;;;;;;24.10;14.95;;;;;;;3.71;100.00;97724.34;5092398;28;20048;-82
2022/04/22 04:43:23;;;;;;;29.45;13.45;;;;;;;3.59;100.00;97708.81;5093595;28;20518;-81
2022/04/22 04:45:51;;;;;;;25.92;14.23;;;;;;;3.35;100.00;97681.06;5095988;28;20048;-81
2022/04/22 04:48:18;;;;;;;22.48;12.57;;;;;;;3.60;100.00;97715.84;5096372;28;20048;-82
2022/04/22 04:50:47;;;;;;;23.70;13.23;;;;;;;3.64;100.00;97711.81;5095879;28;20048;-82
2022/04/22 04:53:14;;;;;;;25.48;14.93;;;;;;;3.61;100.00;97715.66;5095262;28;20060;-82
2022/04/22 04:55:41;;;;;;;22.00;12.85;;;;;;;3.56;100.00;97710.00;5095822;28;20136;-81
2022/04/22 04:58:08;;;;;;;24.50;13.23;;;;;;;3.57;100.00;97687.50;5095944;28;20066;-82
2022/04/22 05:00:35;;;;;;;25.67;13.32;;;;;;;3.60;100.00;97707.78;5099255;28;20048;-81
2022/04/22 05:03:06;;;;;;;24.55;13.50;;;;;;;3.80;100.00;97716.25;5092160;28;20454;-81
2022/04/22 05:05:36;;;;;;;22.67;12.82;;;;;;;3.81;100.00;97725.97;5099357;28;21978;-81
2022/04/22 05:08:05;;;;;;;26.88;14.45;;;;;;;3.84;100.00;97698.72;5094589;28;20052;-82
2022/04/22 05:10:36;;;;;;;27.40;13.32;;;;;;;4.00;100.00;97700.50;5087897;28;20167;-82
2022/04/22 05:13:04;;;;;;;27.73;15.20;;;;;;;4.22;100.00;97713.09;5089095;28;20145;-81
2022/04/22 05:15:32;;;;;;;26.33;15.05;;;;;;;4.23;100.00;97695.94;5093599;28;20078;-82
2022/04/22 05:17:59;;;;;;;25.55;16.17;;;;;;;4.31;100.00;97705.81;5088108;28;20059;-82
2022/04/22 05:20:27;;;;;;;28.92;15.70;;;;;;;4.43;100.00;97715.13;5083563;28;20040;-82
2022/04/22 05:22:55;;;;;;;27.50;15.10;;;;;;;4.46;100.00;97713.06;5089066;28;20502;-82
2022/04/22 05:25:23;;;;;;;28.48;14.30;;;;;;;4.42;100.00;97680.31;5090876;28;20079;-81
2022/04/22 05:27:50;;;;;;;37.53;17.38;;;;;;;4.85;100.00;97703.94;5092334;28;20044;-82
2022/04/22 05:33:03;;;;;;;29.90;17.77;;;;;;;5.07;100.00;97699.50;5080899;28;20581;-82
2022/04/22 05:35:32;;;;;;;33.25;17.33;;;;;;;5.19;100.00;97699.88;5091038;28;20048;-83
2022/04/22 05:38:03;;;;;;;33.38;18.25;;;;;;;5.56;100.00;97701.63;5094199;28;20067;-82
2022/04/22 05:40:31;;;;;;;28.25;16.02;;;;;;;5.44;100.00;97700.44;5091879;28;20128;-81
2022/04/22 05:42:59;;;;;;;28.45;16.00;;;;;;;5.90;100.00;97707.38;5092427;28;20204;-82
2022/04/22 05:45:27;;;;;;;30.95;16.05;;;;;;;6.05;100.00;97701.97;5093331;28;20056;-82
2022/04/22 05:47:56;;;;;;;30.00;15.98;;;;;;;5.99;100.00;97687.38;5093170;28;20142;-82
2022/04/22 05:50:26;;;;;;;30.23;15.00;;;;;;;6.21;100.00;97672.03;5087188;28;20048;-81
2022/04/22 05:52:55;;;;;;;24.73;13.93;;;;;;;6.30;100.00;97673.56;5089188;28;20071;-82
2022/04/22 05:55:24;;;;;;;26.98;14.18;;;;;;;6.52;100.00;97668.16;5087207;28;20112;-83
2022/04/22 05:57:53;;;;;;;24.73;15.63;;;;;;;6.88;100.00;97702.25;5082852;28;20050;-83
2022/04/22 06:00:21;;;;;;;29.77;15.02;;;;;;;7.21;100.00;97677.31;5087799;28;20054;-82
2022/04/22 06:02:52;;;;;;;24.88;15.38;;;;;;;7.60;97.54;97692.06;5084621;28;20062;-82
2022/04/22 06:05:20;;;;;;;27.25;15.65;;;;;;;8.09;94.52;97690.16;5088511;28;20371;-83
2022/04/22 06:07:47;;;;;;;24.02;15.00;;;;;;;8.32;93.40;97687.91;5092097;28;20112;-83
2022/04/22 06:10:33;;;;;;;27.38;15.95;;;;;;;8.46;90.65;97683.34;5091141;28;20036;-84
2022/04/22 06:13:00;;;;;;;26.02;14.93;;;;;;;8.75;90.16;97689.38;5089111;28;20051;-85
2022/04/22 06:15:30;;;;;;;27.65;14.77;;;;;;;9.16;88.75;97688.28;5088334;28;20411;-82
2022/04/22 06:17:59;;;;;;;;;;;;;;;9.48;85.59;97684.84;5083392;28;20040;-83
2022/04/22 06:20:26;;;;;;;25.17;14.15;;;;;;;9.66;84.04;97665.16;5090589;28;19928;-82
2022/04/22 06:22:54;;;;;;;19.92;13.73;;;;;;;9.81;82.64;97664.88;5089046;28;20056;-83
2022/04/22 06:25:23;;;;;;;22.60;13.90;;;;;;;9.81;84.04;97682.00;5081166;28;20076;-82
2022/04/22 06:27:49;;;;;;;23.25;14.57;;;;;;;10.07;81.92;97681.03;5086275;28;20055;-83
2022/04/22 06:30:18;;;;;;;23.88;14.55;;;;;;;10.02;80.80;97658.28;5085163;28;20052;-83
2022/04/22 06:32:49;;;;;;;24.45;13.57;;;;;;;10.37;80.61;97666.88;5097026;28;20055;-83
2022/04/22 06:35:18;;;;;;;23.92;14.93;;;;;;;10.61;79.49;97672.53;5082581;28;20052;-83
2022/04/22 06:37:47;;;;;;;22.92;13.88;;;;;;;10.55;78.96;97671.56;5097505;28;20043;-83
2022/04/22 06:45:49;;;;;;;22.40;13.63;;;;;;;10.93;75.91;97667.00;5089853;28;20055;-83
2022/04/22 06:48:19;;;;;;;26.10;14.65;;;;;;;10.74;76.67;97650.69;5095916;28;20056;-82
2022/04/22 06:50:50;;;;;;;24.63;14.43;;;;;;;11.06;76.13;97647.84;5087798;28;20087;-82
2022/04/22 06:53:21;;;;;;;23.15;13.15;;;;;;;11.56;72.88;97663.22;5096637;28;20044;-83
2022/04/22 06:55:53;;;;;;;23.15;13.57;;;;;;;11.86;71.56;97646.06;5089316;28;20044;-83
2022/04/22 06:58:23;;;;;;;22.60;14.25;;;;;;;12.28;68.13;97659.75;5088492;28;20082;-83
2022/04/22 07:00:53;;;;;;;;;;;;;;;11.89;69.43;97667.38;5094807;28;20621;-82
2022/04/22 07:03:20;;;;;;;20.65;13.65;;;;;;;11.67;69.98;97658.91;5094240;28;19920;-83
2022/04/22 07:05:48;;;;;;;19.85;13.07;;;;;;;12.09;69.48;97637.19;5093565;28;20040;-83
2022/04/22 07:08:17;;;;;;;18.83;12.07;;;;;;;12.24;68.30;97655.84;5091472;28;20044;-83
2022/04/22 07:10:45;;;;;;;24.95;13.25;;;;;;;11.78;69.23;97651.84;5091244;28;20051;-83
2022/04/22 07:13:14;;;;;;;19.58;12.10;;;;;;;12.13;67.01;97629.38;5090802;28;20044;-82
2022/04/22 07:15:45;;;;;;;17.95;12.38;;;;;;;12.39;66.96;97636.34;5090575;28;20048;-83
2022/04/22 07:18:16;;;;;;;19.60;12.40;;;;;;;12.03;67.91;97630.78;5087934;28;20040;-82
2022/04/22 07:20:43;;;;;;;18.70;12.10;;;;;;;11.88;69.41;97646.69;5092141;28;20051;-83
2022/04/22 07:23:12;;;;;;;18.25;12.52;;;;;;;12.10;67.67;97614.31;5091513;28;20056;-83
2022/04/22 07:25:41;;;;;;;20.50;12.70;;;;;;;12.27;66.15;97624.56;5092083;28;20455;-83
2022/04/22 07:28:09;;;;;;;21.10;11.73;;;;;;;12.15;66.75;97640.88;5092007;28;20047;-83
2022/04/22 07:30:39;;;;;;;16.73;11.30;;;;;;;11.93;68.96;97637.84;5090011;28;20081;-83
2022/04/22 07:33:08;;;;;;;;;;;;;;;11.84;69.19;97637.31;5090747;28;20048;-83
2022/04/22 07:35:35;;;;;;;14.38;10.30;;;;;;;12.14;67.46;97625.59;5091170;28;20433;-83
2022/04/22 07:38:03;;;;;;;19.95;10.80;;;;;;;12.21;67.37;97626.34;5092107;28;20059;-82
2022/04/22 07:40:30;;;;;;;18.50;11.63;;;;;;;11.86;68.67;97632.44;5091571;28;20127;-83
2022/04/22 07:48:29;;;;;;;15.40;11.15;;;;;;;12.06;65.89;97609.56;5087413;28;20043;-83
2022/04/22 07:50:56;;;;;;;17.80;10.80;;;;;;;12.00;67.72;97628.53;5091260;28;20044;-83
2022/04/22 07:53:23;;;;;;;15.38;11.20;;;;;;;12.29;67.64;97597.91;5090537;28;20535;-83
2022/04/22 07:55:53;;;;;;;18.00;11.27;;;;;;;12.59;65.19;97599.75;5090992;28;20090;-83
2022/04/22 07:58:20;;;;;;;19.50;10.90;;;;;;;12.75;64.49;97632.56;5090408;28;20048;-82
2022/04/22 08:00:47;;;;;;;15.70;10.90;;;;;;;12.87;69.37;97618.09;5091862;28;20044;-83
2022/04/22 08:03:15;;;;;;;20.73;11.90;;;;;;;12.92;66.05;97612.78;5088393;28;20097;-83
2022/04/22 08:05:44;;;;;;;16.77;10.93;;;;;;;12.45;64.06;97599.13;5091786;28;20048;-82
2022/04/22 08:08:11;;;;;;;15.90;10.40;;;;;;;12.79;65.15;97623.91;5093230;28;20151;-83
2022/04/22 08:10:39;;;;;;;15.88;10.35;;;;;;;12.87;66.04;97629.84;5090648;28;20058;-83
2022/04/22 08:13:06;;;;;;;18.95;11.18;;;;;;;13.01;63.13;97626.88;5090823;28;20070;-82
2022/04/22 08:15:33;;;;;;;16.50;10.80;;;;;;;13.03;63.93;97597.47;5091141;28;20052;-82
2022/04/22 08:18:03;;;;;;;17.98;11.27;;;;;;;13.01;64.40;97624.97;5091847;28;20075;-82
2022/04/22 08:20:31;;;;;;;17.20;10.95;;;;;;;13.12;64.08;97608.84;5089917;28;20792;-82
2022/04/22 08:23:00;;;;;;;14.98;10.88;;;;;;;12.83;63.32;97595.13;5089948;28;20048;-83
2022/04/22 08:25:28;;;;;;;16.67;10.88;;;;;;;13.04;64.42;97613.59;5083069;28;20063;-82
2022/04/22 08:27:55;;;;;;;17.65;10.35;;;;;;;12.99;64.91;97591.66;5091670;28;20048;-82
2022/04/22 08:30:26;;;;;;;15.35;10.52;;;;;;;13.26;64.36;97610.22;5105220;28;20046;-82
2022/04/22 08:32:53;;;;;;;15.35;10.13;;;;;;;13.17;64.53;97590.69;5092816;28;20068;-82
2022/04/22 08:35:26;;;;;;;17.08;9.82;;;;;;;13.13;63.07;97616.78;5094387;28;20400;-82
2022/04/22 08:37:58;;;;;;;17.23;10.75;;;;;;;12.50;63.36;97580.16;5094386;28;20074;-82
2022/04/22 08:40:33;;;;;;;18.83;10.25;;;;;;;12.88;63.87;97601.50;5090621;28;20399;-82
2022/04/22 08:43:09;;;;;;;15.18;9.52;;;;;;;13.08;63.38;97613.94;5096052;28;20059;-82
2022/04/22 08:45:41;;;;;;;14.63;8.77;;;;;;;12.79;63.36;97596.66;5089670;28;20449;-82
2022/04/22 08:50:55;;;;;;;16.23;10.00;;;;;;;12.73;63.60;97603.88;5095531;28;20058;-82
2022/04/22 08:53:32;;;;;;;15.23;10.63;;;;;;;12.35;64.12;97567.81;5096774;28;20048;-83
2022/04/22 08:56:10;;;;;;;14.68;10.02;;;;;;;12.66;64.70;97576.75;5097212;28;20052;-82
2022/04/22 08:58:38;;;;;;;14.15;9.80;;;;;;;12.96;62.67;97578.47;5097093;28;20070;-82
2022/04/22 09:01:11;;;;;;;17.17;10.52;;;;;;;13.08;61.86;97590.22;5096206;28;20048;-82
2022/04/22 09:03:39;;;;;;;17.55;10.45;;;;;;;13.19;61.38;97580.34;5094953;28;20563;-82
2022/04/22 09:06:06;;;;;;;14.98;11.07;;;;;;;13.36;61.24;97587.81;5088251;28;20067;-82
2022/04/22 09:08:33;;;;;;;16.20;10.32;;;;;;;13.26;61.25;97574.75;5085009;28;20105;-82
2022/04/22 09:11:04;;;;;;;12.63;8.35;;;;;;;13.09;64.24;97578.22;5093716;28;20082;-82
2022/04/22 09:13:31;;;;;;;16.23;9.80;;;;;;;13.18;65.44;97559.59;5092730;28;20044;-82
2022/04/22 09:15:59;;;;;;;15.98;10.20;;;;;;;13.38;62.71;97558.38;5093453;28;20072;-82
2022/04/22 09:18:26;;;;;;;24.35;11.93;;;;;;;13.51;63.31;97568.19;5093883;28;20062;-82
2022/04/22 09:20:56;;;;;;;16.92;10.70;;;;;;;13.62;63.24;97559.13;5092489;28;20047;-82
2022/04/22 09:23:33;;;;;;;16.80;11.00;;;;;;;13.32;63.32;97579.25;5093077;28;20062;-83
2022/04/22 09:26:02;;;;;;;14.82;10.25;;;;;;;13.30;64.19;97580.56;5094228;28;20089;-82
2022/04/22 09:28:28;;;;;;;19.60;12.02;;;;;;;12.99;64.55;97550.75;5095687;28;20167;-82
2022/04/22 09:31:00;;;;;;;13.98;9.93;;;;;;;13.02;66.14;97554.88;5092200;28;20052;-83
2022/04/22 09:33:26;;;;;;;17.38;10.27;;;;;;;13.03;66.78;97556.53;5092794;28;20445;-83
2022/04/22 09:44:24;;;;;;;18.27;10.48;;;;;;;13.65;65.70;97514.13;5091639;28;20051;-83
2022/04/22 09:47:12;;;;;;;15.32;10.63;;;;;;;13.55;64.05;97526.50;5093376;28;20052;-82
2022/04/22 09:49:40;;;;;;;16.25;11.02;;;;;;;13.06;64.65;97517.88;5092305;28;20052;-82
2022/04/22 09:52:07;;;;;;;16.50;11.18;;;;;;;12.89;66.84;97506.88;5090996;28;20151;-82
2022/04/22 09:54:34;;;;;;;16.63;10.38;;;;;;;13.25;66.11;97522.09;5088312;28;20052;-82
2022/04/22 09:57:03;;;;;;;16.63;10.60;;;;;;;13.73;64.79;97511.81;5092702;28;20140;-82
2022/04/22 09:59:32;;;;;;;15.50;10.45;;;;;;;13.65;63.65;97534.06;5091502;28;20135;-82
2022/04/22 10:02:00;;;;;;;14.50;10.68;;;;;;;13.80;63.90;97548.00;5092682;28;20554;-82
2022/04/22 10:04:28;;;;;;;21.30;11.02;;;;;;;13.77;62.37;97504.78;5092633;28;20473;-82
2022/04/22 10:06:56;;;;;;;17.45;11.40;;;;;;;13.81;61.75;97503.22;5092727;28;20457;-83
2022/04/22 10:09:24;;;;;;;16.92;10.88;;;;;;;13.86;62.34;97515.31;5091060;28;20043;-83
2022/04/22 10:11:54;;;;;;;12.88;9.27;;;;;;;13.66;61.65;97504.88;5092316;28;20082;-83
2022/04/22 10:14:35;;;;;;;16.25;9.18;;;;;;;13.93;61.34;97514.06;5092472;28;20074;-83
2022/04/22 10:17:04;;;;;;;14.45;9.48;;;;;;;14.01;62.28;97496.44;5090229;28;20083;-82
2022/04/22 10:19:34;;;;;;;18.92;11.05;;;;;;;14.30;61.35;97489.00;5093291;28;20046;-82
2022/04/22 10:22:07;;;;;;;15.27;9.88;;;;;;;14.13;60.18;97486.25;5090809;28;20042;-83
2022/04/22 10:24:33;;;;;;;16.48;9.55;;;;;;;14.40;60.65;97518.38;5097237;28;20670;-82
2022/04/22 10:27:01;;;;;;;14.70;10.32;;;;;;;14.52;59.84;97515.56;5089248;28;20059;-82
2022/04/22 10:29:31;;;;;;;14.02;10.13;;;;;;;14.26;59.79;97501.50;5101964;28;20467;-82
2022/04/22 10:31:58;;;;;;;14.63;9.93;;;;;;;14.34;59.66;97492.03;5099357;28;20444;-82
2022/04/22 10:34:38;;;;;;;13.52;9.07;;;;;;;14.73;58.30;97489.34;5090227;28;20301;-82
2022/04/22 10:37:06;;;;;;;;;;;;;;;14.92;58.20;97503.56;5090691;28;20465;-83
2022/04/22 10:39:34;;;;;;;13.27;9.57;;;;;;;14.98;58.00;97508.03;5093372;28;19948;-82
2022/04/22 10:42:00;;;;;;;15.88;9.98;;;;;;;15.16;58.88;97511.50;5094010;28;20052;-82
2022/04/22 10:47:16;;;;;;;15.23;10.60;;;;;;;15.44;57.12;97509.66;5091840;28;20442;-82
2022/04/22 10:49:44;;;;;;;16.92;10.65;;;;;;;15.00;56.66;97489.44;5091635;28;20074;-82
2022/04/22 10:52:13;;;;;;;15.50;11.65;;;;;;;14.66;57.65;97473.13;5089869;28;20036;-82
2022/04/22 10:55:08;;;;;;;18.63;10.00;;;;;;;14.71;58.54;97491.53;5090995;28;20563;-83
2022/04/22 10:57:35;;;;;;;15.45;10.30;;;;;;;15.17;57.11;97491.28;5091679;28;20094;-83
2022/04/22 11:00:05;;;;;;;14.82;9.82;;;;;;;15.42;57.13;97474.31;5091965;28;20107;-83
2022/04/22 11:02:34;;;;;;;;;;;;;;;15.66;55.14;97485.78;5090573;28;20076;-82
2022/04/22 11:05:38;;;;;;;16.25;9.15;;;;;;;15.70;55.09;97464.16;5090929;28;19920;-83
2022/04/22 11:08:09;;;;;;;15.80;10.82;;;;;;;15.58;55.67;97467.91;5067912;28;20056;-82
2022/04/22 11:11:02;;;;;;;14.48;10.02;;;;;;;15.90;55.71;97480.03;5090697;28;20479;-82
2022/04/22 11:13:35;;;;;;;17.83;10.13;;;;;;;16.13;53.43;97470.59;5070885;28;20056;-82
2022/04/22 11:16:07;;;;;;;13.77;9.48;;;;;;;16.13;52.85;97456.91;5071292;28;20098;-82
2022/04/22 11:18:40;;;;;;;14.93;9.30;;;;;;;15.86;53.94;97462.44;5081760;28;20195;-83
2022/04/22 11:21:12;;;;;;;12.75;9.27;;;;;;;16.09;54.34;97444.81;5091581;28;20059;-82
2022/04/22 11:23:40;;;;;;;16.05;9.98;;;;;;;16.08;53.97;97454.94;5091211;28;20071;-82
2022/04/22 11:26:13;;;;;;;14.32;9.02;;;;;;;16.14;53.72;97461.31;5090478;28;20051;-83
2022/04/22 11:28:41;;;;;;;11.98;8.77;;;;;;;16.42;52.92;97465.63;5091568;28;20117;-83
2022/04/22 11:31:12;;;;;;;15.48;9.85;;;;;;;16.37;52.47;97464.75;5071118;28;20090;-83
2022/04/22 11:33:54;;;;;;;14.23;9.95;;;;;;;16.48;50.81;97446.44;5088167;28;20044;-83
2022/04/22 11:36:23;;;;;;;15.77;10.15;;;;;;;16.68;50.99;97463.03;5075456;28;20043;-82
2022/04/22 11:38:53;;;;;;;13.95;9.32;;;;;;;16.37;51.48;97472.97;5091264;28;20060;-83
2022/04/22 11:41:21;;;;;;;13.50;8.70;;;;;;;16.08;51.79;97446.72;5090061;28;20078;-82
2022/04/22 11:43:48;;;;;;;13.27;8.65;;;;;;;16.21;51.95;97472.88;5089186;28;20048;-82
2022/04/22 11:46:18;;;;;;;12.40;9.13;;;;;;;16.81;50.77;97447.97;5090407;28;20043;-83
2022/04/22 11:48:48;;;;;;;11.27;7.88;;;;;;;17.26;50.65;97453.94;5091264;28;20079;-83
2022/04/22 11:51:20;;;;;;;12.75;8.90;;;;;;;17.64;49.90;97447.19;5099327;28;20048;-83
2022/04/22 11:53:48;;;;;;;14.73;9.32;;;;;;;17.57;48.90;97427.38;5090201;28;20093;-82
2022/04/22 11:56:23;;;;;;;12.18;8.45;;;;;;;17.27;47.54;97433.66;5090745;28;20399;-82
2022/04/22 11:58:57;;;;;;;11.07;7.80;;;;;;;17.33;49.34;97440.78;5091060;28;20091;-82
2022/04/22 12:07:03;;;;;;;11.77;7.68;;;;;;;18.21;44.23;97422.44;5090593;28;20048;-82
2022/04/22 12:09:30;;;;;;;8.75;7.03;;;;;;;18.43;46.13;97424.91;5087937;28;20040;-82
2022/04/22 12:12:00;;;;;;;9.05;6.88;;;;;;;18.62;45.65;97433.34;5089340;28;20055;-82
2022/04/22 12:14:30;;;;;;;10.68;7.60;;;;;;;18.73;44.20;97423.97;5090008;28;20052;-82
2022/04/22 12:16:57;;;;;;;;;;;;;;;19.03;42.84;97433.25;5091503;28;20443;-83
2022/04/22 12:19:26;;;;;;;12.85;8.13;;;;;;;18.72;43.37;97425.06;5088383;28;20436;-82
2022/04/22 12:21:53;;;;;;;13.87;7.90;;;;;;;18.63;45.36;97434.19;5091351;28;20059;-81
2022/04/22 12:24:21;;;;;;;10.98;8.48;;;;;;;18.20;44.74;97421.63;5094188;28;20044;-82